Startpagina
METAR-TAF:

METAR-TAF

Vliegvelden :

Albert, Frankrijk

breedte: 49-58-21N, lengte: 002-41-29E, hoogte: 111 m

Actueel weer

Dit bericht is 12 minuten geleden gemaakt, om 19:00 UTC
Wind 8 kt uit het westen
Temperatuur 10°C
Vochtigheid 76%
Druk 1019 hPa
Zicht 10 km of meer
Weinig wolken op 3300 ft

METAR: LFAQ 231900Z AUTO 28008KT 9999 FEW033 10/06 Q1019

Tijdstip: 21:12 (19:12 UTC)

Verwachting

Dit bericht is 5 uur en het 12 minuten geleden gemaakt, om 14:00 UTC
Verwachting geldig van 23 om 15 UTC tot 23 om 24 UTC
Wind 12 kt uit het westen
Zicht 10 km of meer
Verspreide wolken op 3000 ft

TAF: LFAQ 231400Z 2315/2324 28012KT 9999 SCT030

Waarnemingen en weersverwachtingen van meer dan 4000 vliegvelden (METAR en TAF).

De beschikbare stations zijn de gele en rode punten op de kaart.

Ga met uw muis naar het station om de naam te zien.

Klik dan om waarnemingen en weersverwachtingen te zien.

kaart wijzigen: klik op de groene knoppen met een zwart kruis om in te zoomen, op de groene knop met een streepje om uit te zoomen of op de groene pijlen voor aangrenzende kaarten.


METAR-TAF: